createdAt,value
2022-11-20T00:01:09.991Z,111
2022-11-20T00:03:11.212Z,111
2022-11-20T00:05:12.782Z,111
2022-11-20T00:07:14.048Z,111
2022-11-20T00:09:15.307Z,111
2022-11-20T00:11:16.723Z,111
2022-11-20T00:13:17.668Z,111
2022-11-20T00:15:19.353Z,111
2022-11-20T00:17:21.249Z,111
2022-11-20T00:19:22.763Z,111
2022-11-20T00:21:24.109Z,111
2022-11-20T00:23:25.848Z,111
2022-11-20T00:27:29.227Z,111
2022-11-20T00:29:31.098Z,111
2022-11-20T00:31:32.430Z,111
2022-11-20T00:33:34.175Z,111
2022-11-20T00:37:37.324Z,111
2022-11-20T00:39:39.110Z,111
2022-11-20T00:41:41.055Z,111
2022-11-20T00:43:42.217Z,111
2022-11-20T00:47:45.030Z,111
2022-11-20T00:49:46.972Z,111
2022-11-20T00:51:48.913Z,111
2022-11-20T00:53:50.817Z,111
2022-11-20T00:55:52.237Z,111
2022-11-20T00:57:54.037Z,111
2022-11-20T00:59:55.617Z,111
2022-11-20T01:01:56.732Z,111
2022-11-20T01:03:58.109Z,111
2022-11-20T01:05:59.879Z,111
2022-11-20T01:10:03.049Z,111
2022-11-20T01:12:04.661Z,111
2022-11-20T01:14:06.101Z,111
2022-11-20T01:16:07.784Z,111
2022-11-20T01:20:10.587Z,111
2022-11-20T01:22:12.374Z,111
2022-11-20T01:24:13.442Z,111
2022-11-20T01:26:14.858Z,111
2022-11-20T01:30:17.959Z,111
2022-11-20T01:32:19.949Z,111
2022-11-20T01:34:21.521Z,111
2022-11-20T01:36:23.052Z,111
2022-11-20T01:40:26.317Z,111
2022-11-20T01:42:28.315Z,111
2022-11-20T01:44:29.592Z,111
2022-11-20T01:46:31.351Z,111
2022-11-20T01:48:32.428Z,111
2022-11-20T01:52:34.969Z,111
2022-11-20T01:54:36.329Z,111
2022-11-20T01:56:38.118Z,111
2022-11-20T01:58:39.567Z,111
2022-11-20T02:02:42.118Z,111
2022-11-20T02:04:43.870Z,111
2022-11-20T02:08:46.740Z,111
2022-11-20T02:12:49.942Z,111
2022-11-20T02:14:51.705Z,111
2022-11-20T02:16:53.045Z,111
2022-11-20T02:18:54.282Z,111
2022-11-20T02:22:57.090Z,111
2022-11-20T02:24:58.327Z,111
2022-11-20T02:27:43.520Z,111
2022-11-20T02:29:45.027Z,111
2022-11-20T02:35:49.693Z,111
2022-11-20T02:37:51.495Z,111
2022-11-20T02:39:52.746Z,111
2022-11-20T02:41:53.984Z,111
2022-11-20T02:45:57.471Z,111
2022-11-20T02:47:59.155Z,111
2022-11-20T02:50:00.981Z,111
2022-11-20T02:52:02.737Z,111
2022-11-20T02:56:06.469Z,111
2022-11-20T03:00:09.159Z,111
2022-11-20T03:02:10.235Z,111
2022-11-20T03:04:11.730Z,111
2022-11-20T03:06:12.901Z,111
2022-11-20T03:08:14.143Z,111
2022-11-20T03:12:16.559Z,111
2022-11-20T03:14:18.112Z,111
2022-11-20T03:18:21.151Z,111
2022-11-20T03:22:23.640Z,111
2022-11-20T03:24:25.124Z,111
2022-11-20T03:28:27.724Z,111
2022-11-20T03:32:31.652Z,111
2022-11-20T03:34:32.932Z,111
2022-11-20T03:38:35.343Z,111
2022-11-20T03:40:37.386Z,111
2022-11-20T03:42:38.518Z,111
2022-11-20T03:44:39.927Z,111
2022-11-20T03:46:41.699Z,111
2022-11-20T03:48:46.370Z,111
2022-11-20T03:50:44.900Z,111
2022-11-20T03:52:46.548Z,111
2022-11-20T03:54:48.057Z,111
2022-11-20T03:56:50.036Z,111
2022-11-20T04:00:53.401Z,111
2022-11-20T04:02:54.499Z,111
2022-11-20T04:04:56.344Z,111
2022-11-20T04:06:58.334Z,111
2022-11-20T04:11:01.476Z,111
2022-11-20T04:13:03.483Z,111
2022-11-20T04:15:05.342Z,111
2022-11-20T04:17:07.152Z,111
2022-11-20T04:19:08.808Z,111
2022-11-20T04:21:09.945Z,111
2022-11-20T04:23:11.021Z,111
2022-11-20T04:25:12.704Z,111
2022-11-20T04:27:14.008Z,111
2022-11-20T04:31:17.621Z,111
2022-11-20T04:33:19.249Z,111
2022-11-20T04:35:20.603Z,111
2022-11-20T04:37:22.143Z,111
2022-11-20T04:39:24.148Z,112
2022-11-20T04:43:26.879Z,112
2022-11-20T04:45:27.998Z,111
2022-11-20T04:47:29.808Z,112
2022-11-20T04:49:31.703Z,111
2022-11-20T04:53:34.640Z,112
2022-11-20T04:55:36.305Z,111
2022-11-20T04:57:37.790Z,112
2022-11-20T04:59:39.331Z,112
2022-11-20T05:01:41.226Z,111
2022-11-20T05:03:42.945Z,111
2022-11-20T05:05:44.027Z,112
2022-11-20T05:09:47.930Z,111
2022-11-20T05:11:51.559Z,112
2022-11-20T05:13:51.835Z,111
2022-11-20T05:15:53.723Z,112
2022-11-20T05:17:55.744Z,111
2022-11-20T05:19:56.879Z,111
2022-11-20T05:21:58.724Z,111
2022-11-20T05:26:01.149Z,111
2022-11-20T05:28:02.683Z,111
2022-11-20T05:30:04.272Z,112
2022-11-20T05:32:05.901Z,111
2022-11-20T05:36:08.222Z,111
2022-11-20T05:38:09.503Z,111
2022-11-20T05:40:11.253Z,111
2022-11-20T05:42:13.199Z,111
2022-11-20T05:44:14.648Z,111
2022-11-20T05:46:15.984Z,111
2022-11-20T05:48:17.417Z,111
2022-11-20T05:50:19.278Z,112
2022-11-20T05:52:20.576Z,111
2022-11-20T05:56:24.160Z,111
2022-11-20T05:58:25.682Z,111
2022-11-20T06:00:26.944Z,111
2022-11-20T06:02:28.541Z,111
2022-11-20T06:04:30.311Z,111
2022-11-20T06:08:33.479Z,111
2022-11-20T06:10:34.608Z,111
2022-11-20T06:12:36.210Z,111
2022-11-20T06:14:38.148Z,111
2022-11-20T06:18:42.085Z,111
2022-11-20T06:20:43.262Z,111
2022-11-20T06:22:45.148Z,111
2022-11-20T06:24:46.801Z,111
2022-11-20T06:26:48.621Z,111
2022-11-20T06:28:49.817Z,111
2022-11-20T06:30:51.022Z,111
2022-11-20T06:32:52.336Z,111
2022-11-20T06:34:54.079Z,111
2022-11-20T06:38:57.466Z,111
2022-11-20T06:40:59.039Z,111
2022-11-20T06:43:00.092Z,111
2022-11-20T06:45:02.119Z,111
2022-11-20T06:47:04.089Z,111
2022-11-20T06:51:07.130Z,111
2022-11-20T06:53:08.951Z,111
2022-11-20T06:55:10.193Z,111
2022-11-20T06:57:11.384Z,111
2022-11-20T07:01:14.164Z,111
2022-11-20T07:03:16.058Z,111
2022-11-20T07:07:18.713Z,111
2022-11-20T07:09:19.861Z,111
2022-11-20T07:11:20.992Z,111
2022-11-20T07:13:22.445Z,111
2022-11-20T07:15:24.189Z,111
2022-11-20T07:17:25.193Z,111
2022-11-20T07:21:27.770Z,111
2022-11-20T07:23:29.106Z,111
2022-11-20T07:27:32.237Z,111
2022-11-20T07:29:33.761Z,111
2022-11-20T07:31:35.424Z,111
2022-11-20T07:33:37.269Z,111
2022-11-20T07:37:40.903Z,111
2022-11-20T07:39:42.379Z,111
2022-11-20T07:43:44.954Z,111
2022-11-20T07:45:46.415Z,111
2022-11-20T07:49:49.247Z,112
2022-11-20T07:53:52.083Z,112
2022-11-20T07:55:53.614Z,112
2022-11-20T07:59:56.552Z,111
2022-11-20T08:03:58.983Z,111
2022-11-20T08:06:00.252Z,111
2022-11-20T08:08:01.512Z,111
2022-11-20T08:10:03.292Z,111
2022-11-20T08:12:04.531Z,111
2022-11-20T08:14:06.491Z,111
2022-11-20T08:16:08.424Z,111
2022-11-20T08:18:31.006Z,111
2022-11-20T08:20:10.869Z,112
2022-11-20T08:22:12.548Z,111
2022-11-20T08:24:13.976Z,111
2022-11-20T08:26:15.494Z,111
2022-11-20T08:28:21.109Z,129
2022-11-20T08:32:19.695Z,129
2022-11-20T08:34:21.636Z,109
2022-11-20T08:36:23.240Z,109
2022-11-20T08:38:24.420Z,109
2022-11-20T08:42:27.784Z,289
2022-11-20T08:44:28.895Z,289
2022-11-20T08:46:30.642Z,289
2022-11-20T08:48:32.211Z,289
2022-11-20T08:50:34.054Z,289
2022-11-20T08:52:39.661Z,289
2022-11-20T08:54:36.529Z,289
2022-11-20T08:56:37.881Z,289
2022-11-20T08:59:02.243Z,289
2022-11-20T09:00:41.432Z,289
2022-11-20T09:02:42.927Z,289
2022-11-20T09:04:44.736Z,289
2022-11-20T09:06:45.773Z,289
2022-11-20T09:08:47.496Z,289
2022-11-20T09:10:48.946Z,289
2022-11-20T09:13:34.055Z,289
2022-11-20T09:15:35.066Z,289
2022-11-20T09:19:38.331Z,291
2022-11-20T09:21:40.128Z,291
2022-11-20T09:23:41.769Z,291
2022-11-20T09:25:42.889Z,276
2022-11-20T09:29:45.756Z,276
2022-11-20T09:31:47.304Z,268
2022-11-20T09:33:48.731Z,207
2022-11-20T09:35:50.147Z,217
2022-11-20T09:39:52.655Z,217
2022-11-20T09:41:54.049Z,257
2022-11-20T09:43:55.773Z,257
2022-11-20T09:45:57.704Z,257
2022-11-20T09:47:58.661Z,257
2022-11-20T09:52:00.990Z,276
2022-11-20T09:54:02.252Z,273
2022-11-20T09:56:03.377Z,273
2022-11-20T09:58:04.522Z,273
2022-11-20T10:02:07.548Z,273
2022-11-20T10:04:09.294Z,273
2022-11-20T10:08:12.039Z,225
2022-11-20T10:12:14.752Z,306
2022-11-20T10:14:16.608Z,300
2022-11-20T10:18:19.441Z,360
2022-11-20T10:22:22.234Z,360
2022-11-20T10:24:23.993Z,360
2022-11-20T10:28:26.807Z,360
2022-11-20T10:30:28.158Z,360
2022-11-20T10:32:29.122Z,360
2022-11-20T10:34:30.543Z,360
2022-11-20T10:40:35.111Z,360
2022-11-20T10:42:36.561Z,360
2022-11-20T10:44:37.948Z,360
2022-11-20T10:46:39.079Z,360
2022-11-20T10:50:41.728Z,360
2022-11-20T10:52:43.272Z,360
2022-11-20T10:54:44.985Z,360
2022-11-20T10:56:49.837Z,360
2022-11-20T11:00:49.019Z,360
2022-11-20T11:02:50.370Z,360
2022-11-20T11:04:52.099Z,360
2022-11-20T11:06:53.668Z,360
2022-11-20T11:08:55.361Z,360
2022-11-20T11:10:56.576Z,11
2022-11-20T11:12:58.298Z,360
2022-11-20T11:14:59.490Z,360
2022-11-20T11:17:01.215Z,360
2022-11-20T11:19:02.465Z,360
2022-11-20T11:21:03.867Z,360
2022-11-20T11:23:05.058Z,360
2022-11-20T11:25:06.668Z,360
2022-11-20T11:27:09.272Z,360
2022-11-20T11:29:08.754Z,360
2022-11-20T11:33:10.877Z,360
2022-11-20T11:35:12.690Z,360
2022-11-20T11:39:16.009Z,360
2022-11-20T11:43:19.771Z,360
2022-11-20T11:45:20.988Z,360
2022-11-20T11:47:22.475Z,360
2022-11-20T11:49:23.768Z,360
2022-11-20T11:53:25.749Z,360
2022-11-20T11:55:27.349Z,360
2022-11-20T11:57:29.173Z,360
2022-11-20T11:59:30.121Z,360
2022-11-20T12:03:33.659Z,360
2022-11-20T12:05:34.960Z,360
2022-11-20T12:07:45.838Z,360
2022-11-20T12:09:38.069Z,360
2022-11-20T12:11:39.691Z,360
2022-11-20T12:15:42.424Z,360
2022-11-20T12:17:43.696Z,360
2022-11-20T12:19:44.773Z,360
2022-11-20T12:21:45.822Z,360
2022-11-20T12:25:49.594Z,360
2022-11-20T12:27:50.932Z,360
2022-11-20T12:31:54.742Z,360
2022-11-20T12:33:56.297Z,360
2022-11-20T12:35:58.259Z,360
2022-11-20T12:37:59.809Z,360
2022-11-20T12:40:01.260Z,360
2022-11-20T12:42:02.603Z,360
2022-11-20T12:46:05.214Z,360
2022-11-20T12:48:07.188Z,360
2022-11-20T12:52:09.985Z,360
2022-11-20T12:54:11.671Z,360
2022-11-20T12:56:13.539Z,360
2022-11-20T12:58:15.054Z,360
2022-11-20T13:02:17.903Z,360
2022-11-20T13:04:19.293Z,360
2022-11-20T13:06:30.120Z,360
2022-11-20T13:08:22.340Z,360
2022-11-20T13:10:23.712Z,360
2022-11-20T13:14:26.622Z,360
2022-11-20T13:18:29.444Z,360
2022-11-20T13:20:30.899Z,360
2022-11-20T13:24:34.184Z,360
2022-11-20T13:28:36.589Z,360
2022-11-20T13:30:37.659Z,360
2022-11-20T13:32:38.639Z,360
2022-11-20T13:34:39.960Z,360
2022-11-20T13:36:41.698Z,360
2022-11-20T13:38:43.617Z,360
2022-11-20T13:40:44.707Z,360
2022-11-20T13:42:45.971Z,360
2022-11-20T13:44:47.755Z,360
2022-11-20T13:46:48.703Z,360
2022-11-20T13:48:50.305Z,360
2022-11-20T13:50:51.776Z,360
2022-11-20T13:52:53.681Z,360
2022-11-20T13:56:56.960Z,360
2022-11-20T13:59:02.353Z,360
2022-11-20T14:01:00.227Z,360
2022-11-20T14:03:01.271Z,360
2022-11-20T14:07:03.868Z,360
2022-11-20T14:09:04.865Z,360
2022-11-20T14:11:06.768Z,360
2022-11-20T14:13:08.047Z,360
2022-11-20T14:15:09.724Z,355
2022-11-20T14:17:10.945Z,356
2022-11-20T14:19:12.245Z,356
2022-11-20T14:21:13.540Z,356
2022-11-20T14:23:15.481Z,356
2022-11-20T14:25:17.347Z,356
2022-11-20T14:27:18.412Z,356
2022-11-20T14:29:19.696Z,355
2022-11-20T14:31:21.289Z,355
2022-11-20T14:33:23.081Z,355
2022-11-20T14:35:24.593Z,355
2022-11-20T14:39:27.793Z,207
2022-11-20T14:41:29.242Z,233
2022-11-20T14:43:30.540Z,233
2022-11-20T14:45:32.072Z,233
2022-11-20T14:49:34.699Z,233
2022-11-20T14:51:36.487Z,233
2022-11-20T14:53:37.922Z,233
2022-11-20T14:55:39.027Z,233
2022-11-20T14:59:41.418Z,233
2022-11-20T15:01:42.809Z,233
2022-11-20T15:03:44.521Z,233
2022-11-20T15:05:46.104Z,233
2022-11-20T15:09:49.135Z,233
2022-11-20T15:11:50.165Z,233
2022-11-20T15:13:51.419Z,233
2022-11-20T15:15:52.801Z,233
2022-11-20T15:17:54.301Z,233
2022-11-20T15:21:57.754Z,233
2022-11-20T15:23:59.349Z,233
2022-11-20T15:26:00.622Z,233
2022-11-20T15:28:02.324Z,233
2022-11-20T15:32:09.160Z,233
2022-11-20T15:34:07.192Z,233
2022-11-20T15:38:10.229Z,233
2022-11-20T15:42:12.709Z,233
2022-11-20T15:44:14.019Z,233
2022-11-20T15:46:15.632Z,233
2022-11-20T15:48:16.685Z,233
2022-11-20T15:52:19.612Z,233
2022-11-20T15:54:21.493Z,233
2022-11-20T15:57:05.956Z,233
2022-11-20T15:59:07.714Z,233
2022-11-20T16:05:12.029Z,233
2022-11-20T16:07:13.368Z,233
2022-11-20T16:09:14.360Z,233
2022-11-20T16:11:15.967Z,219
2022-11-20T16:15:18.485Z,223
2022-11-20T16:17:20.263Z,238
2022-11-20T16:19:22.102Z,242
2022-11-20T16:21:23.532Z,242
2022-11-20T16:25:26.090Z,242
2022-11-20T16:27:27.447Z,242
2022-11-20T16:29:36.798Z,265
2022-11-20T16:31:30.708Z,265
2022-11-20T16:33:31.906Z,265
2022-11-20T16:35:33.742Z,265
2022-11-20T16:37:35.017Z,260
2022-11-20T16:39:36.810Z,260
2022-11-20T16:41:38.535Z,261
2022-11-20T16:43:39.961Z,261
2022-11-20T16:45:50.593Z,261
2022-11-20T16:47:42.828Z,261
2022-11-20T16:49:44.397Z,261
2022-11-20T16:51:45.937Z,261
2022-11-20T16:53:47.492Z,261
2022-11-20T16:57:51.159Z,261
2022-11-20T16:59:52.190Z,261
2022-11-20T17:01:53.490Z,261
2022-11-20T17:03:54.621Z,261
2022-11-20T17:07:57.248Z,261
2022-11-20T17:09:58.983Z,261
2022-11-20T17:12:00.518Z,261
2022-11-20T17:14:02.174Z,261
2022-11-20T17:16:03.963Z,261
2022-11-20T17:18:05.450Z,261
2022-11-20T17:20:06.738Z,261
2022-11-20T17:22:08.550Z,261
2022-11-20T17:24:09.965Z,261
2022-11-20T17:26:11.879Z,261
2022-11-20T17:28:13.174Z,261
2022-11-20T17:30:14.321Z,261
2022-11-20T17:32:15.471Z,160
2022-11-20T17:34:16.737Z,160
2022-11-20T17:36:18.489Z,360
2022-11-20T17:40:25.986Z,360
2022-11-20T17:42:23.172Z,360
2022-11-20T17:46:26.657Z,360
2022-11-20T17:50:29.338Z,204
2022-11-20T17:52:31.196Z,206
2022-11-20T17:54:32.411Z,206
2022-11-20T17:56:33.551Z,190
2022-11-20T17:58:34.563Z,189
2022-11-20T18:00:35.683Z,190
2022-11-20T18:02:37.018Z,192
2022-11-20T18:04:38.645Z,191
2022-11-20T18:06:39.883Z,191
2022-11-20T18:10:42.374Z,191
2022-11-20T18:12:43.767Z,191
2022-11-20T18:14:45.078Z,191
2022-11-20T18:16:46.568Z,185
2022-11-20T18:18:48.453Z,186
2022-11-20T18:22:51.066Z,225
2022-11-20T18:24:52.530Z,360
2022-11-20T18:26:54.088Z,200
2022-11-20T18:28:55.927Z,200
2022-11-20T18:32:59.164Z,200
2022-11-20T18:35:00.475Z,360
2022-11-20T18:39:04.056Z,266
2022-11-20T18:43:06.736Z,162
2022-11-20T18:45:08.034Z,203
2022-11-20T18:47:13.919Z,203
2022-11-20T18:49:10.429Z,235
2022-11-20T18:53:12.477Z,235
2022-11-20T18:55:13.948Z,235
2022-11-20T18:59:16.671Z,227
2022-11-20T19:01:18.644Z,227
2022-11-20T19:03:20.093Z,227
2022-11-20T19:05:21.281Z,227
2022-11-20T19:09:24.538Z,227
2022-11-20T19:11:25.875Z,227
2022-11-20T19:15:29.650Z,227
2022-11-20T19:17:30.847Z,229
2022-11-20T19:21:33.474Z,243
2022-11-20T19:25:38.253Z,272
2022-11-20T19:27:37.976Z,272
2022-11-20T19:31:40.848Z,272
2022-11-20T19:35:44.541Z,272
2022-11-20T19:37:46.161Z,272
2022-11-20T19:41:48.946Z,190
2022-11-20T19:43:50.868Z,261
2022-11-20T19:45:52.224Z,270
2022-11-20T19:48:07.003Z,239
2022-11-20T19:51:56.501Z,280
2022-11-20T19:53:58.354Z,186
2022-11-20T19:56:00.027Z,226
2022-11-20T19:58:01.717Z,213
2022-11-20T20:00:02.784Z,256
2022-11-20T20:04:05.807Z,215
2022-11-20T20:06:07.738Z,259
2022-11-20T20:08:09.180Z,249
2022-11-20T20:10:10.273Z,230
2022-11-20T20:14:13.129Z,232
2022-11-20T20:16:14.409Z,237
2022-11-20T20:18:15.635Z,235
2022-11-20T20:20:16.662Z,173
2022-11-20T20:22:18.277Z,251
2022-11-20T20:24:19.432Z,235
2022-11-20T20:26:21.280Z,260
2022-11-20T20:28:22.181Z,240
2022-11-20T20:30:23.727Z,294
2022-11-20T20:32:25.183Z,198
2022-11-20T20:34:26.380Z,210
2022-11-20T20:36:28.323Z,247
2022-11-20T20:38:30.234Z,242
2022-11-20T20:40:31.379Z,238
2022-11-20T20:42:32.791Z,232
2022-11-20T20:46:35.849Z,229
2022-11-20T20:48:37.613Z,237
2022-11-20T20:50:38.693Z,234
2022-11-20T20:52:40.232Z,218
2022-11-20T20:56:42.679Z,223
2022-11-20T20:58:44.582Z,232
2022-11-20T21:00:45.697Z,195
2022-11-20T21:02:47.252Z,174
2022-11-20T21:08:52.332Z,266
2022-11-20T21:10:53.988Z,211
2022-11-20T21:12:55.015Z,236
2022-11-20T21:14:56.131Z,259
2022-11-20T21:18:59.177Z,224
2022-11-20T21:21:00.783Z,217
2022-11-20T21:23:02.335Z,200
2022-11-20T21:25:03.965Z,239
2022-11-20T21:29:07.517Z,236
2022-11-20T21:31:08.845Z,207
2022-11-20T21:35:11.231Z,178
2022-11-20T21:39:14.066Z,237
2022-11-20T21:41:15.408Z,220
2022-11-20T21:45:18.478Z,219
2022-11-20T21:49:22.005Z,234
2022-11-20T21:53:25.568Z,240
2022-11-20T21:55:27.294Z,239
2022-11-20T21:57:29.154Z,225
2022-11-20T21:59:30.394Z,225
2022-11-20T22:01:31.486Z,232
2022-11-20T22:05:34.787Z,200
2022-11-20T22:07:36.586Z,256
2022-11-20T22:11:39.620Z,278
2022-11-20T22:13:40.769Z,217
2022-11-20T22:17:44.304Z,183
2022-11-20T22:21:46.937Z,260
2022-11-20T22:23:48.012Z,196
2022-11-20T22:27:51.788Z,244
2022-11-20T22:31:54.770Z,238
2022-11-20T22:33:56.172Z,236
2022-11-20T22:37:59.079Z,231
2022-11-20T22:40:00.764Z,227
2022-11-20T22:42:02.406Z,222
2022-11-20T22:42:46.260Z,222
2022-11-20T22:44:48.023Z,233
2022-11-20T22:46:49.530Z,229
2022-11-20T22:48:51.547Z,247
2022-11-20T22:50:52.870Z,257
2022-11-20T22:54:56.581Z,235
2022-11-20T22:56:58.347Z,246
2022-11-20T22:58:59.634Z,360
2022-11-20T23:01:01.581Z,229
2022-11-20T23:05:03.647Z,258
2022-11-20T23:07:05.251Z,196
2022-11-20T23:09:06.835Z,217
2022-11-20T23:11:08.277Z,267
2022-11-20T23:13:10.213Z,250
2022-11-20T23:15:12.046Z,263
2022-11-20T23:17:13.546Z,226
2022-11-20T23:19:15.329Z,247
2022-11-20T23:21:16.661Z,254
2022-11-20T23:23:17.913Z,243
2022-11-20T23:25:19.088Z,255
2022-11-20T23:27:20.902Z,360
2022-11-20T23:29:21.277Z,247
2022-11-20T23:31:22.604Z,275
2022-11-20T23:33:24.324Z,264
2022-11-20T23:37:27.372Z,232
2022-11-20T23:39:29.151Z,290
2022-11-20T23:43:32.410Z,259
2022-11-20T23:47:35.495Z,252
2022-11-20T23:49:37.052Z,221
2022-11-20T23:51:38.956Z,224
2022-11-20T23:53:40.819Z,300
2022-11-20T23:55:42.505Z,239
2022-11-20T23:57:43.563Z,228
2022-11-20T23:59:44.750Z,233
